Placerville, CO

3:00 PM MDT on September 02, 2014 (GMT -0600)
Telluride Regional | Change Station
CLOSE
Current Station
Airport
Location: Telluride,
Elevation: 9078 ft
Nearby Weather Stations

Elev 9078 ft 37.95 °N, 107.91 °W | Updated 1 hour ago

Clear
Clear
73 °F
Feels Like 73 °F
N
6
Wind Variable Wind from West
Gusts 16 mph

Today
High -- | Low -- °F
--% Chance of Precip.
Yesterday
High -- | Low -- °F
Precip. -- in
6:42 AM 7:40 PM
First Quarter, 55% visible
Pressure 30.37 in
Visibility 10.0 miles
Clouds Clear
Dew Point 30 °F
Humidity 20%
Rainfall 0.00 in
Snow Depth 3 in
UV 11 out of 12
Pollen 9.20 out of 12
Air Quality Not available.
Flu Activity Not available.
METAR KTEX 021956Z AUTO 28005G14KT 10SM CLR 23/M01 A3037 RMK AO2

More Conditions Fewer Conditions

Pressure 30.37 in
Visibility 10.0 miles
Clouds Clear
Dew Point 30 °F
Humidity 20%
Rainfall 0.00 in
Snow Depth 3 in
UV 11 out of 12
Pollen 9.20 out of 12
Air Quality Not available.
Flu Activity Not available.
METAR KTEX 021956Z AUTO 28005G14KT 10SM CLR 23/M01 A3037 RMK AO2

More Conditions Fewer Conditions

10-Day Weather Forecast

Almanac

Astronomy

Sep. 02, 2014 Rise Set
Actual Time 6:42 AM MDT 7:40 PM MDT
Civil Twilight 6:16 AM MDT 8:06 PM MDT
Nautical Twilight 5:44 AM MDT 8:38 PM MDT
Astronomical Twilight 5:10 AM MDT 9:11 PM MDT
Moon 2:23 PM MDT No Moon Set
Length of Visible Light 13h 50m
Length of Day
12h 57m
Tomorrow will be 2m 22s shorter.
First Quarter, 55% of the Moon is Illuminated
Today
First Quarter
Sep 8
Full
Sep 15
Last Quarter
Sep 24
New
Oct 1
First Quarter

Today's Extremes

State Highs State Lows

Community

WunderPhotos

Upload Photos

1,749,762 photos uploaded!

WunderBlogs® & News

Nearby

Snow Depth

Station Depth Elevation
Lone Cone 3 in 9600 ft
Idarado 9 in 9800 ft
Overland Reservoir 0 in 9880 ft
McClure Pass 1 in 9500 ft
North Lost Trail 0 in 9200 ft

Earthquake Activity

City Distance Mag. Time & Date
No recent earthquake activity has been reported nearby.
Minimum magnitude displayed is 2.5.

Coastal Water Temperatures

Place Temperature
No Stations Reporting

Nearby Weather Stations